Time;durP1;ratioP1;P1;durP2;ratioP2;P2;SDS_P1;SDS_P2;PMS_P1;PMS_P2;Temp;Humidity;BMP_temperature;BMP_pressure;BME280_temperature;BME280_humidity;BME280_pressure;Samples;Min_cycle;Max_cycle;Signal;HPM_P1;HPM_P2
2023/07/06 00:01:48;;;;;;;3.33;2.20;;;14.50;1.00;;;;;;6216131;23;20267;-90
2023/07/06 00:04:36;;;;;;;7.03;2.53;;;14.30;1.00;;;;;;6195100;23;20762;-90
2023/07/06 00:07:24;;;;;;;6.00;2.30;;;14.20;1.00;;;;;;6194224;23;20035;-90
2023/07/06 00:10:12;;;;;;;3.28;2.33;;;14.10;1.00;;;;;;6216144;23;20024;-89
2023/07/06 00:13:01;;;;;;;5.63;2.55;;;14.10;5.20;;;;;;6219376;22;20056;-89
2023/07/06 00:15:49;;;;;;;6.32;2.45;;;13.90;12.50;;;;;;6216914;23;20027;-89
2023/07/06 00:18:45;;;;;;;6.57;2.67;;;13.80;22.70;;;;;;6219504;22;20024;-89
2023/07/06 00:21:32;;;;;;;4.80;2.70;;;13.50;37.20;;;;;;6238618;22;20032;-90
2023/07/06 00:24:21;;;;;;;5.78;2.92;;;13.30;58.90;;;;;;6216617;23;20083;-90
2023/07/06 00:27:08;;;;;;;4.65;2.65;;;13.10;91.90;;;;;;6218326;23;20024;-89
2023/07/06 00:30:15;;;;;;;6.38;2.88;;;13.00;99.90;;;;;;6219290;22;20309;-89
2023/07/06 00:33:03;;;;;;;3.75;2.45;;;12.80;99.90;;;;;;6216371;23;20020;-89
2023/07/06 00:35:53;;;;;;;4.40;2.88;;;12.70;99.90;;;;;;6216679;23;20096;-90
2023/07/06 00:38:41;;;;;;;6.03;2.15;;;12.90;99.90;;;;;;6219991;22;20020;-89
2023/07/06 00:41:40;;;;;;;4.22;2.50;;;13.10;99.90;;;;;;6218655;23;20072;-89
2023/07/06 00:44:57;;;;;;;4.83;2.60;;;13.30;99.90;;;;;;6201519;23;20039;-89
2023/07/06 00:47:52;;;;;;;4.95;2.67;;;13.50;99.90;;;;;;6218442;23;20446;-89
2023/07/06 00:50:41;;;;;;;4.60;2.70;;;13.70;99.90;;;;;;6218473;23;20025;-90
2023/07/06 00:53:34;;;;;;;5.68;2.38;;;13.80;99.90;;;;;;6216948;23;20057;-89
2023/07/06 00:56:25;;;;;;;;;;;13.80;99.90;;;;;;6241283;23;20021;-89
2023/07/06 00:59:17;;;;;;;7.00;2.58;;;13.70;99.90;;;;;;6219471;23;19916;-90
2023/07/06 01:02:13;;;;;;;5.63;2.42;;;13.60;99.90;;;;;;6219960;23;20088;-89
2023/07/06 01:05:04;;;;;;;6.03;2.60;;;13.60;99.90;;;;;;6219445;23;20200;-90
2023/07/06 01:07:55;;;;;;;9.80;2.45;;;13.50;99.90;;;;;;6220717;23;20108;-89
2023/07/06 01:10:43;;;;;;;4.15;2.20;;;13.50;99.90;;;;;;6218688;23;20507;-89
2023/07/06 01:13:34;;;;;;;4.38;2.67;;;13.50;99.90;;;;;;6221315;22;20427;-89
2023/07/06 01:16:27;;;;;;;5.38;2.75;;;13.40;99.90;;;;;;6219192;23;20029;-89
2023/07/06 01:20:06;;;;;;;4.53;2.60;;;13.30;99.90;;;;;;6217472;23;20098;-89
2023/07/06 01:23:13;;;;;;;3.88;2.22;;;13.00;99.90;;;;;;6138297;23;20029;-89
2023/07/06 01:26:42;;;;;;;5.50;2.78;;;12.80;99.90;;;;;;6156010;23;20041;-89
2023/07/06 01:30:07;;;;;;;5.18;2.72;;;12.60;99.90;;;;;;6158638;23;20029;-88
2023/07/06 01:33:01;;;;;;;6.40;3.00;;;12.40;99.90;;;;;;6138657;23;20025;-88
2023/07/06 01:36:04;;;;;;;5.88;2.67;;;12.30;99.90;;;;;;6139142;23;20367;-90
2023/07/06 01:39:19;;;;;;;5.18;2.55;;;12.20;99.90;;;;;;6157549;23;20022;-89
2023/07/06 01:42:12;;;;;;;3.20;2.60;;;12.00;99.90;;;;;;6156339;23;20021;-88
2023/07/06 01:45:16;;;;;;;5.85;2.90;;;12.00;99.90;;;;;;6159685;23;20036;-90
2023/07/06 01:48:10;;;;;;;7.93;3.22;;;12.00;99.90;;;;;;6139402;23;20025;-89
2023/07/06 01:51:34;;;;;;;5.78;3.03;;;12.10;99.90;;;;;;6156723;23;20029;-90
2023/07/06 01:54:29;;;;;;;4.68;2.85;;;12.10;99.90;;;;;;6224744;23;20040;-89
2023/07/06 01:57:31;;;;;;;8.82;3.20;;;12.20;99.90;;;;;;6234954;22;20028;-90
2023/07/06 02:00:47;;;;;;;5.85;3.10;;;12.10;99.90;;;;;;6230217;23;20024;-89
2023/07/06 02:03:38;;;;;;;5.47;3.35;;;12.00;99.90;;;;;;6232977;22;20042;-90
2023/07/06 02:06:25;;;;;;;8.95;4.22;;;11.80;99.90;;;;;;6233974;23;20104;-89
2023/07/06 02:09:18;;;;;;;10.10;4.50;;;11.60;99.90;;;;;;6242299;23;20008;-87
2023/07/06 02:12:08;;;;;;;7.47;3.70;;;11.50;99.90;;;;;;6223213;23;20067;-88
2023/07/06 02:14:55;;;;;;;7.97;3.97;;;11.40;99.90;;;;;;6219133;23;20103;-88
2023/07/06 02:17:44;;;;;;;8.88;3.35;;;11.30;99.90;;;;;;6238631;23;20021;-88
2023/07/06 02:20:34;;;;;;;5.05;3.03;;;11.20;1.00;;;;;;6212523;23;20025;-90
2023/07/06 02:23:21;;;;;;;3.85;3.10;;;11.10;1.00;;;;;;6239794;23;20066;-88
2023/07/06 02:26:09;;;;;;;4.30;3.40;;;11.10;1.00;;;;;;6218855;23;20033;-87
2023/07/06 02:28:57;;;;;;;6.53;3.95;;;11.20;1.00;;;;;;6240399;23;20021;-90
2023/07/06 02:31:47;;;;;;;6.80;3.53;;;11.50;1.00;;;;;;6209834;23;20029;-90
2023/07/06 02:34:34;;;;;;;7.03;3.45;;;11.60;1.00;;;;;;6221811;23;20020;-90
2023/07/06 02:37:25;;;;;;;4.10;2.95;;;11.70;1.00;;;;;;6222396;23;20020;-90
2023/07/06 02:40:14;;;;;;;5.45;3.20;;;11.80;1.00;;;;;;6219864;23;20035;-90
2023/07/06 02:43:01;;;;;;;6.55;3.25;;;11.90;1.00;;;;;;6198492;23;20025;-90
2023/07/06 02:45:50;;;;;;;6.03;2.83;;;11.90;99.90;;;;;;6198201;23;20093;-90
2023/07/06 02:48:41;;;;;;;4.32;2.92;;;11.90;99.90;;;;;;6197643;23;20099;-88
2023/07/06 02:51:29;;;;;;;4.47;3.10;;;11.90;99.90;;;;;;6195734;23;20132;-90
2023/07/06 02:54:20;;;;;;;10.20;3.00;;;11.90;99.90;;;;;;6194879;23;20024;-88
2023/07/06 02:57:11;;;;;;;6.97;3.17;;;12.00;99.90;;;;;;6195830;23;20040;-90
2023/07/06 03:00:02;;;;;;;9.20;3.10;;;12.10;99.90;;;;;;6196760;23;20476;-89
2023/07/06 03:02:51;;;;;;;5.57;2.97;;;12.20;99.90;;;;;;6193784;23;20020;-90
2023/07/06 03:05:39;;;;;;;6.00;3.25;;;12.20;99.90;;;;;;6216468;23;20075;-90
2023/07/06 03:08:27;;;;;;;7.35;3.30;;;12.10;99.90;;;;;;6194547;23;20032;-89
2023/07/06 03:11:17;;;;;;;6.47;2.90;;;12.00;99.90;;;;;;6197142;23;20025;-89
2023/07/06 03:14:05;;;;;;;5.18;3.10;;;11.80;99.90;;;;;;6216558;23;20024;-90
2023/07/06 03:16:53;;;;;;;6.90;3.45;;;11.70;99.90;;;;;;6194485;23;20084;-90
2023/07/06 03:19:43;;;;;;;8.45;3.72;;;11.60;99.90;;;;;;6216710;23;20025;-91
2023/07/06 03:22:34;;;;;;;5.13;3.50;;;11.50;1.00;;;;;;6216112;23;20028;-89
2023/07/06 03:25:24;;;;;;;7.05;3.55;;;11.40;1.00;;;;;;6179721;23;20024;-90
2023/07/06 03:28:12;;;;;;;4.80;3.25;;;11.30;1.00;;;;;;6200360;23;20078;-90
2023/07/06 03:30:59;;;;;;;5.43;3.80;;;11.20;1.00;;;;;;6197705;23;20047;-90
2023/07/06 03:33:48;;;;;;;4.97;3.63;;;11.10;1.00;;;;;;6215597;23;20083;-90
2023/07/06 03:36:38;;;;;;;8.27;3.92;;;11.00;1.00;;;;;;6215626;23;20028;-89
2023/07/06 03:39:26;;;;;;;7.72;4.00;;;10.90;1.00;;;;;;6194795;23;20099;-90
2023/07/06 03:42:14;;;;;;;5.93;3.65;;;10.90;28.20;;;;;;6217273;23;20064;-90
2023/07/06 03:45:05;;;;;;;5.20;3.35;;;10.90;84.60;;;;;;6194129;23;20163;-90
2023/07/06 03:47:52;;;;;;;6.72;3.53;;;11.00;99.90;;;;;;6217616;23;20025;-89
2023/07/06 03:50:40;;;;;;;7.15;3.70;;;11.00;99.90;;;;;;6195268;23;20024;-89
2023/07/06 03:53:30;;;;;;;6.47;3.90;;;11.00;99.90;;;;;;6193827;23;20060;-89
2023/07/06 03:56:18;;;;;;;7.30;3.70;;;11.00;99.90;;;;;;6215223;23;20372;-90
2023/07/06 03:59:08;;;;;;;6.95;3.20;;;11.00;99.90;;;;;;6216191;23;20078;-89
2023/07/06 04:06:06;;;;;;;7.65;3.45;;;11.10;99.50;;;;;;6218656;23;20031;-90
2023/07/06 04:08:56;;;;;;;6.68;4.13;;;11.20;72.30;;;;;;6204368;23;20035;-89
2023/07/06 04:11:44;;;;;;;7.65;3.97;;;11.20;54.30;;;;;;6225866;23;20050;-89
2023/07/06 04:14:32;;;;;;;7.47;4.18;;;11.20;35.50;;;;;;6227673;23;20020;-89
2023/07/06 04:17:19;;;;;;;6.85;3.88;;;11.20;33.90;;;;;;6225978;23;20020;-88
2023/07/06 04:20:18;;;;;;;8.60;4.60;;;11.10;26.00;;;;;;6225055;23;20024;-88
2023/07/06 04:23:09;;;;;;;7.30;3.97;;;11.10;35.40;;;;;;6226543;23;20121;-89
2023/07/06 04:25:59;;;;;;;5.78;3.80;;;11.10;44.30;;;;;;6226955;23;20054;-90
2023/07/06 04:28:49;;;;;;;5.70;3.78;;;11.10;56.80;;;;;;6231415;23;20035;-89
2023/07/06 04:31:38;;;;;;;9.10;4.45;;;11.10;71.90;;;;;;6230126;23;20042;-89
2023/07/06 04:34:27;;;;;;;7.07;4.15;;;11.20;77.30;;;;;;6227240;23;20020;-89
2023/07/06 04:37:14;;;;;;;9.57;3.67;;;11.40;69.30;;;;;;6227842;23;20081;-89
2023/07/06 04:40:11;;;;;;;6.88;4.10;;;11.40;54.60;;;;;;6252206;22;20095;-89
2023/07/06 04:42:59;;;;;;;5.57;3.97;;;11.60;39.70;;;;;;6230498;23;20020;-88
2023/07/06 04:45:46;;;;;;;7.60;4.05;;;11.70;20.40;;;;;;6237964;23;20028;-89
2023/07/06 04:48:34;;;;;;;7.95;3.92;;;11.80;2.30;;;;;;6261405;23;20051;-88
2023/07/06 04:51:22;;;;;;;5.50;3.60;;;11.90;1.00;;;;;;6237024;23;20024;-90
2023/07/06 04:54:09;;;;;;;9.73;3.20;;;12.00;1.00;;;;;;6253269;22;20054;-89
2023/07/06 04:56:57;;;;;;;5.22;3.58;;;12.00;1.00;;;;;;6227608;23;20090;-89
2023/07/06 04:59:45;;;;;;;8.93;3.63;;;12.10;1.00;;;;;;6228587;23;20035;-88
2023/07/06 05:02:32;;;;;;;6.78;3.25;;;12.10;1.00;;;;;;6225714;23;20021;-89
2023/07/06 05:05:20;;;;;;;8.32;3.65;;;12.30;1.00;;;;;;6253054;23;20048;-89
2023/07/06 05:08:15;;;;;;;10.73;4.97;;;12.40;1.00;;;;;;6224642;23;20107;-90
2023/07/06 05:11:03;;;;;;;7.85;2.80;;;12.50;1.00;;;;;;6199426;23;20436;-89
2023/07/06 05:13:53;;;;;;;9.95;3.90;;;12.70;1.00;;;;;;6217362;23;20134;-88
2023/07/06 05:16:41;;;;;;;6.82;3.33;;;12.90;99.90;;;;;;6196290;23;20332;-89
2023/07/06 05:19:32;;;;;;;7.30;3.15;;;13.10;99.90;;;;;;6218016;23;20028;-89
2023/07/06 05:22:20;;;;;;;12.20;2.92;;;13.30;99.90;;;;;;6196891;23;20020;-90
2023/07/06 05:25:11;;;;;;;9.88;3.45;;;13.40;99.90;;;;;;6218587;23;20029;-89
2023/07/06 05:27:58;;;;;;;7.90;3.67;;;13.60;99.90;;;;;;6220089;23;20032;-89
2023/07/06 05:30:47;;;;;;;4.43;2.90;;;13.80;99.90;;;;;;6225139;23;20017;-88
2023/07/06 05:33:35;;;;;;;7.72;3.58;;;13.90;99.90;;;;;;6219640;23;20020;-88
2023/07/06 05:36:22;;;;;;;7.25;3.20;;;14.00;99.90;;;;;;6198848;23;20435;-90
2023/07/06 05:39:10;;;;;;;4.28;2.90;;;14.10;99.90;;;;;;6196144;23;20096;-88
2023/07/06 05:41:57;;;;;;;7.38;3.67;;;14.30;99.90;;;;;;6195628;23;20025;-89
2023/07/06 05:44:45;;;;;;;5.95;2.83;;;14.50;99.90;;;;;;6196516;23;20032;-90
2023/07/06 05:47:34;;;;;;;4.13;2.80;;;14.60;99.90;;;;;;6217026;23;20036;-89
2023/07/06 05:50:21;;;;;;;7.28;3.33;;;14.90;99.90;;;;;;6197580;23;20083;-89
2023/07/06 05:53:09;;;;;;;6.03;3.22;;;15.00;99.90;;;;;;6196066;23;20115;-89
2023/07/06 05:55:56;;;;;;;5.45;3.28;;;14.80;99.90;;;;;;6194420;23;20383;-89
2023/07/06 05:58:44;;;;;;;4.85;2.92;;;14.80;99.90;;;;;;6197096;23;20420;-89
2023/07/06 06:01:32;;;;;;;7.45;3.13;;;14.90;99.90;;;;;;6205460;23;20021;-85
2023/07/06 06:04:19;;;;;;;5.25;2.85;;;15.00;99.90;;;;;;6202264;23;20416;-88
2023/07/06 06:07:07;;;;;;;6.78;2.95;;;15.10;99.90;;;;;;6195250;23;20032;-89
2023/07/06 06:09:56;;;;;;;6.70;2.70;;;15.30;99.90;;;;;;6211236;23;20063;-89
2023/07/06 06:12:44;;;;;;;4.93;2.90;;;15.40;99.90;;;;;;6219876;23;20047;-89
2023/07/06 06:15:33;;;;;;;6.22;3.30;;;15.50;99.90;;;;;;6216056;23;20100;-90
2023/07/06 06:18:22;;;;;;;6.63;3.22;;;15.60;99.90;;;;;;6218867;23;20031;-89
2023/07/06 06:21:10;;;;;;;8.40;2.80;;;15.80;99.90;;;;;;6195875;23;20119;-88
2023/07/06 06:24:01;;;;;;;4.78;2.85;;;16.00;99.90;;;;;;6218289;23;20039;-89
2023/07/06 06:26:49;;;;;;;4.30;2.75;;;16.00;98.30;;;;;;6218401;23;20020;-90
2023/07/06 06:29:42;;;;;;;4.63;2.25;;;16.10;76.80;;;;;;6216829;23;20076;-90
2023/07/06 06:32:34;;;;;;;11.80;2.20;;;16.30;62.30;;;;;;6219616;23;20020;-89
2023/07/06 06:35:27;;;;;;;6.07;2.05;;;16.60;30.30;;;;;;6217375;23;20024;-89
2023/07/06 06:38:16;;;;;;;3.22;1.75;;;16.80;8.70;;;;;;6218130;23;20056;-91
2023/07/06 06:41:07;;;;;;;2.85;1.50;;;17.00;1.00;;;;;;6217630;23;20409;-88
2023/07/06 06:43:56;;;;;;;4.55;2.13;;;17.10;1.00;;;;;;6218877;23;20581;-89
2023/07/06 06:46:45;;;;;;;3.28;1.80;;;17.30;1.00;;;;;;6218862;23;20024;-89
2023/07/06 06:49:36;;;;;;;3.17;1.58;;;17.60;1.00;;;;;;6215330;23;20080;-89
2023/07/06 06:52:28;;;;;;;4.28;1.85;;;17.90;1.00;;;;;;6218231;23;20327;-90
2023/07/06 06:55:21;;;;;;;2.72;1.98;;;18.30;1.00;;;;;;6218127;23;20025;-90
2023/07/06 06:58:35;;;;;;;5.55;1.98;;;18.50;1.00;;;;;;6207738;23;20025;-90
2023/07/06 07:01:43;;;;;;;3.03;1.73;;;18.80;1.00;;;;;;6220824;23;20020;-89
2023/07/06 07:04:33;;;;;;;3.20;2.15;;;19.10;1.00;;;;;;6220043;23;20110;-90
2023/07/06 07:07:20;;;;;;;4.03;2.03;;;19.10;1.00;;;;;;6221188;23;20039;-89
2023/07/06 07:10:10;;;;;;;4.07;1.70;;;19.40;1.00;;;;;;6220178;23;20051;-89
2023/07/06 07:12:58;;;;;;;4.30;2.08;;;19.80;1.00;;;;;;6217188;23;20040;-91
2023/07/06 07:15:51;;;;;;;9.70;2.10;;;20.20;1.00;;;;;;6217178;23;20075;-90
2023/07/06 07:18:56;;;;;;;3.45;1.90;;;20.60;1.00;;;;;;6193985;23;20032;-89
2023/07/06 07:21:44;;;;;;;5.43;1.85;;;21.00;1.00;;;;;;6218192;23;20024;-91
2023/07/06 07:24:33;;;;;;;4.10;1.70;;;21.30;1.00;;;;;;6219318;22;20034;-90
2023/07/06 07:27:20;;;;;;;5.35;1.70;;;21.60;1.00;;;;;;6219697;23;20391;-91
2023/07/06 07:30:09;;;;;;;3.45;1.90;;;21.90;1.00;;;;;;6218685;23;20094;-89
2023/07/06 07:32:57;;;;;;;3.70;1.90;;;21.70;1.00;;;;;;6218241;23;20169;-89
2023/07/06 07:35:46;;;;;;;4.68;2.10;;;21.30;1.00;;;;;;6217562;23;20095;-90
2023/07/06 07:38:36;;;;;;;5.63;1.85;;;22.00;1.00;;;;;;6215187;23;20080;-90
2023/07/06 07:41:24;;;;;;;4.00;1.85;;;22.60;1.00;;;;;;6218676;23;20032;-89
2023/07/06 07:44:11;;;;;;;4.50;2.00;;;22.30;1.00;;;;;;6217881;23;20099;-88
2023/07/06 07:46:59;;;;;;;5.88;2.33;;;22.40;1.00;;;;;;6216853;23;20036;-89
2023/07/06 07:49:47;;;;;;;5.70;2.05;;;22.10;1.00;;;;;;6216262;23;20090;-90
2023/07/06 07:52:35;;;;;;;3.92;2.00;;;21.50;1.00;;;;;;6217515;23;20021;-88
2023/07/06 07:55:25;;;;;;;3.47;2.30;;;21.60;1.00;;;;;;6217612;23;20112;-89
2023/07/06 07:58:13;;;;;;;3.78;2.10;;;22.40;1.00;;;;;;6216610;23;20032;-90
2023/07/06 08:01:03;;;;;;;2.10;1.63;;;23.30;1.00;;;;;;6219776;22;20021;-91
2023/07/06 08:03:54;;;;;;;3.90;1.63;;;24.30;1.00;;;;;;6198522;23;20021;-89
2023/07/06 08:06:42;;;;;;;3.97;2.10;;;25.50;1.00;;;;;;6217566;23;20075;-90
2023/07/06 08:09:30;;;;;;;3.53;2.00;;;25.70;1.00;;;;;;6215458;23;20024;-88
2023/07/06 08:12:20;;;;;;;2.92;1.60;;;25.40;1.00;;;;;;6216519;23;20028;-88
2023/07/06 08:15:07;;;;;;;3.72;2.00;;;25.60;1.00;;;;;;6218591;23;20025;-89
2023/07/06 08:18:00;;;;;;;3.70;1.95;;;25.50;1.00;;;;;;6218691;23;20020;-90
2023/07/06 08:20:53;;;;;;;4.53;1.90;;;25.00;1.00;;;;;;6216965;23;20067;-91
2023/07/06 08:24:01;;;;;;;4.47;2.00;;;24.80;1.00;;;;;;6219216;23;20024;-88
2023/07/06 08:26:51;;;;;;;3.75;2.13;;;24.30;1.00;;;;;;6216467;23;20036;-89
2023/07/06 08:29:43;;;;;;;3.33;2.30;;;24.40;1.00;;;;;;6216201;23;20043;-89
2023/07/06 08:32:33;;;;;;;7.95;2.05;;;24.60;1.00;;;;;;6216958;23;20131;-88
2023/07/06 08:35:21;;;;;;;4.35;2.03;;;24.80;1.00;;;;;;6216253;23;20024;-90
2023/07/06 08:38:13;;;;;;;7.50;1.98;;;24.80;1.00;;;;;;6215994;23;20024;-89
2023/07/06 08:41:08;;;;;;;5.22;2.30;;;25.60;1.00;;;;;;6218890;23;20024;-88
2023/07/06 08:43:59;;;;;;;5.85;2.42;;;27.00;1.00;;;;;;6215570;23;20024;-88
2023/07/06 08:46:48;;;;;;;2.60;2.13;;;27.30;1.00;;;;;;6217025;23;20031;-88
2023/07/06 08:49:38;;;;;;;3.45;2.20;;;27.80;1.00;;;;;;6217084;23;20102;-87
2023/07/06 08:52:27;;;;;;;3.97;1.80;;;27.50;1.00;;;;;;6214779;23;20341;-89
2023/07/06 08:55:17;;;;;;;3.17;2.00;;;27.90;1.00;;;;;;6218203;22;20035;-90
2023/07/06 08:58:06;;;;;;;4.38;2.45;;;26.50;1.00;;;;;;6218459;22;20020;-90
2023/07/06 09:01:21;;;;;;;4.63;2.10;;;25.50;1.00;;;;;;6214677;23;20025;-91
2023/07/06 09:04:15;;;;;;;2.38;1.80;;;24.90;1.00;;;;;;6218656;22;20126;-89
2023/07/06 09:07:04;;;;;;;3.30;1.90;;;25.00;1.00;;;;;;6215422;23;20024;-89
2023/07/06 09:09:56;;;;;;;4.82;1.83;;;25.90;1.00;;;;;;6214125;23;20414;-89
2023/07/06 09:13:15;;;;;;;4.15;2.45;;;25.90;1.00;;;;;;6216569;23;20342;-89
2023/07/06 09:16:03;;;;;;;2.67;2.03;;;25.40;1.00;;;;;;6219279;23;20102;-89
2023/07/06 09:18:53;;;;;;;5.00;2.28;;;24.80;1.00;;;;;;6218482;23;20028;-90
2023/07/06 09:21:45;;;;;;;4.93;2.03;;;24.30;1.00;;;;;;6220955;22;20024;-88
2023/07/06 09:24:34;;;;;;;5.50;2.20;;;24.00;1.00;;;;;;6218792;23;20436;-89
2023/07/06 09:27:28;;;;;;;3.75;2.25;;;23.80;1.00;;;;;;6219943;22;20432;-89
2023/07/06 09:30:30;;;;;;;3.67;2.13;;;23.80;1.00;;;;;;6217086;23;20032;-89
2023/07/06 09:33:26;;;;;;;5.05;2.10;;;23.60;1.00;;;;;;6239312;23;20029;-90
2023/07/06 09:36:25;;;;;;;3.22;2.13;;;23.40;1.00;;;;;;6219547;22;20024;-88
2023/07/06 09:39:14;;;;;;;3.75;2.60;;;23.00;1.00;;;;;;6219322;23;20020;-89
2023/07/06 09:42:02;;;;;;;4.32;2.40;;;22.90;1.00;;;;;;6219390;23;20091;-87
2023/07/06 09:44:51;;;;;;;6.65;2.28;;;23.00;1.00;;;;;;6215691;23;20079;-87
2023/07/06 09:47:45;;;;;;;4.10;1.85;;;23.90;1.00;;;;;;6216535;23;20036;-89
2023/07/06 09:50:39;;;;;;;4.88;2.22;;;25.40;1.00;;;;;;6220266;23;20031;-88
2023/07/06 09:53:32;;;;;;;3.15;2.10;;;26.00;1.00;;;;;;6218612;23;20103;-88
2023/07/06 09:56:19;;;;;;;3.45;2.00;;;27.90;1.00;;;;;;6219117;22;20076;-87
2023/07/06 09:59:09;;;;;;;3.03;2.25;;;29.20;1.00;;;;;;6218471;23;20420;-89
2023/07/06 10:02:23;;;;;;;4.43;2.20;;;28.60;1.00;;;;;;6219742;22;20494;-88
2023/07/06 10:05:30;;;;;;;4.63;2.03;;;26.80;1.00;;;;;;6220724;22;20118;-87
2023/07/06 10:08:26;;;;;;;5.85;2.15;;;25.30;1.00;;;;;;6217213;23;20296;-89
2023/07/06 10:11:25;;;;;;;4.55;2.30;;;25.10;1.00;;;;;;6217224;23;20020;-90
2023/07/06 10:14:22;;;;;;;2.97;1.90;;;24.90;1.00;;;;;;6216141;23;20034;-88
2023/07/06 10:17:22;;;;;;;4.40;2.10;;;24.60;1.00;;;;;;6218580;23;20029;-86
2023/07/06 10:20:27;;;;;;;3.53;2.17;;;26.00;1.00;;;;;;6221340;23;20044;-86
2023/07/06 10:23:23;;;;;;;4.10;2.50;;;26.10;1.00;;;;;;6219467;23;20032;-88
2023/07/06 10:26:18;;;;;;;2.92;2.08;;;24.90;1.00;;;;;;6220908;23;20056;-89
2023/07/06 10:29:18;;;;;;;5.43;2.20;;;24.50;1.00;;;;;;6222563;23;20044;-87
2023/07/06 10:32:11;;;;;;;6.57;2.40;;;25.20;1.00;;;;;;6220654;23;20035;-90
2023/07/06 10:35:04;;;;;;;3.67;2.10;;;26.00;1.00;;;;;;6220175;22;20043;-89
2023/07/06 10:37:52;;;;;;;2.78;2.35;;;26.60;1.00;;;;;;6215027;23;20732;-89
2023/07/06 10:40:42;;;;;;;5.82;2.67;;;27.50;1.00;;;;;;6220239;22;20053;-88
2023/07/06 10:43:32;;;;;;;3.47;2.22;;;26.60;1.00;;;;;;6218976;23;20479;-88
2023/07/06 10:46:31;;;;;;;2.97;1.92;;;26.50;1.00;;;;;;6216845;23;20050;-89
2023/07/06 10:49:23;;;;;;;3.97;2.28;;;28.10;1.00;;;;;;6219323;23;20036;-88
2023/07/06 10:52:11;;;;;;;7.55;1.95;;;29.20;1.00;;;;;;6215830;23;20449;-89
2023/07/06 10:54:59;;;;;;;2.90;2.00;;;29.60;1.00;;;;;;6219203;23;20037;-87
2023/07/06 10:57:57;;;;;;;3.65;1.90;;;29.30;1.00;;;;;;6219618;23;20424;-88
2023/07/06 11:00:49;;;;;;;3.38;2.13;;;29.50;1.00;;;;;;6218461;23;20155;-88
2023/07/06 11:03:38;;;;;;;3.40;2.33;;;29.90;1.00;;;;;;6219418;22;20028;-87
2023/07/06 11:06:51;;;;;;;3.13;1.98;;;31.00;1.00;;;;;;6220425;22;20474;-89
2023/07/06 11:10:19;;;;;;;3.17;2.13;;;30.80;1.00;;;;;;6220051;22;20039;-89
2023/07/06 11:13:06;;;;;;;3.35;1.90;;;29.20;1.00;;;;;;6209297;23;20103;-88
2023/07/06 11:15:56;;;;;;;3.40;2.03;;;28.00;1.00;;;;;;6196589;23;20028;-87
2023/07/06 11:18:47;;;;;;;3.05;2.25;;;27.10;1.00;;;;;;6197816;23;20020;-88
2023/07/06 11:21:51;;;;;;;2.70;2.03;;;27.30;1.00;;;;;;6194104;23;20314;-91
2023/07/06 11:24:48;;;;;;;3.85;1.98;;;28.80;1.00;;;;;;6214992;23;20091;-89
2023/07/06 11:27:37;;;;;;;4.40;2.22;;;30.20;1.00;;;;;;6215817;23;20040;-88
2023/07/06 11:30:33;;;;;;;3.33;2.10;;;30.90;1.00;;;;;;6218562;23;20035;-88
2023/07/06 11:33:52;;;;;;;3.30;2.08;;;31.50;1.00;;;;;;6199895;23;20032;-92
2023/07/06 11:37:15;;;;;;;2.45;2.03;;;31.50;1.00;;;;;;6218287;23;20025;-91
2023/07/06 11:40:28;;;;;;;2.20;1.70;;;32.00;1.00;;;;;;6198004;23;20420;-90
2023/07/06 11:43:24;;;;;;;3.30;2.15;;;32.70;1.00;;;;;;6201996;23;20102;-89
2023/07/06 11:46:34;;;;;;;3.35;2.08;;;33.80;1.00;;;;;;6222917;23;20028;-88
2023/07/06 11:49:24;;;;;;;4.38;2.20;;;33.50;1.00;;;;;;6198869;23;20478;-91
2023/07/06 11:52:22;;;;;;;3.75;2.25;;;32.30;1.00;;;;;;6199010;23;20028;-88
2023/07/06 11:55:28;;;;;;;4.05;1.88;;;31.00;1.00;;;;;;6220534;23;20110;-89
2023/07/06 11:58:43;;;;;;;5.18;2.45;;;28.90;1.00;;;;;;6201040;23;20021;-88
2023/07/06 12:01:45;;;;;;;4.07;2.25;;;27.80;1.00;;;;;;6219908;23;20108;-87
2023/07/06 12:04:34;;;;;;;3.60;2.22;;;27.80;1.00;;;;;;6219622;23;20035;-88
2023/07/06 12:07:27;;;;;;;4.38;2.17;;;27.30;1.00;;;;;;6217258;23;20450;-90
2023/07/06 12:10:15;;;;;;;4.32;2.47;;;27.10;1.00;;;;;;6206755;23;20151;-91
2023/07/06 12:13:05;;;;;;;4.60;2.08;;;26.80;1.00;;;;;;6218423;23;20025;-89
2023/07/06 12:16:18;;;;;;;3.80;2.30;;;27.10;1.00;;;;;;6222903;23;20108;-88
2023/07/06 12:19:12;;;;;;;4.32;1.90;;;29.10;1.00;;;;;;6222877;23;20020;-89
2023/07/06 12:22:00;;;;;;;6.38;2.28;;;31.30;1.00;;;;;;6223918;23;20031;-89
2023/07/06 12:24:52;;;;;;;3.42;1.92;;;31.10;1.00;;;;;;6221972;23;20079;-90
2023/07/06 12:27:43;;;;;;;1.85;1.60;;;32.70;1.00;;;;;;6227184;23;20090;-88
2023/07/06 12:30:34;;;;;;;2.95;2.00;;;33.80;1.00;;;;;;6237223;23;20028;-88
2023/07/06 12:33:22;;;;;;;6.80;2.17;;;34.40;1.00;;;;;;6235286;23;20025;-87
2023/07/06 12:36:15;;;;;;;3.67;2.10;;;34.50;1.00;;;;;;6209632;23;20091;-89
2023/07/06 12:39:09;;;;;;;5.30;2.10;;;34.40;1.00;;;;;;6235455;23;20025;-88
2023/07/06 12:41:56;;;;;;;5.88;2.40;;;32.70;1.00;;;;;;6233662;23;20024;-88
2023/07/06 12:44:46;;;;;;;3.67;2.00;;;31.80;1.00;;;;;;6234472;23;20021;-88
2023/07/06 12:47:40;;;;;;;5.63;2.03;;;31.60;1.00;;;;;;6235907;23;20031;-88
2023/07/06 12:50:46;;;;;;;5.18;2.15;;;32.40;1.00;;;;;;6235573;23;20064;-88
2023/07/06 12:53:34;;;;;;;4.28;2.17;;;32.30;1.00;;;;;;6240847;23;20052;-88
2023/07/06 12:56:31;;;;;;;5.07;1.92;;;33.00;1.00;;;;;;6239859;23;20043;-88
2023/07/06 12:59:21;;;;;;;3.10;1.80;;;34.10;99.90;;;;;;6212698;23;20021;-88
2023/07/06 13:02:20;;;;;;;4.47;2.40;;;35.00;99.90;;;;;;6232874;23;20028;-88
2023/07/06 13:05:17;;;;;;;4.47;2.33;;;33.30;99.90;;;;;;6234969;23;20021;-87
2023/07/06 13:08:08;;;;;;;7.35;2.25;;;32.00;99.90;;;;;;6236385;23;20140;-87
2023/07/06 13:11:03;;;;;;;4.78;2.00;;;30.10;1.00;;;;;;6234528;23;20051;-89
2023/07/06 13:13:55;;;;;;;5.35;2.08;;;29.00;1.00;;;;;;6232251;23;20024;-89
2023/07/06 13:16:44;;;;;;;5.55;2.25;;;30.50;1.00;;;;;;6228515;22;20099;-89
2023/07/06 13:19:33;;;;;;;3.97;2.47;;;31.60;1.00;;;;;;6206301;23;20021;-90
2023/07/06 13:22:22;;;;;;;4.35;2.15;;;29.50;1.00;;;;;;6234361;23;20020;-92
2023/07/06 13:25:17;;;;;;;4.75;2.38;;;28.00;1.00;;;;;;6232267;23;20021;-90
2023/07/06 13:28:14;;;;;;;4.85;2.40;;;27.40;1.00;;;;;;6234997;22;20086;-88
2023/07/06 13:31:05;;;;;;;3.08;2.20;;;28.00;1.00;;;;;;6242063;23;20015;-88
2023/07/06 13:33:53;;;;;;;4.65;1.95;;;28.80;1.00;;;;;;6244210;22;20013;-90
2023/07/06 13:36:41;;;;;;;3.10;2.08;;;30.00;1.00;;;;;;6236410;22;20035;-91
2023/07/06 13:39:29;;;;;;;3.47;2.20;;;30.40;99.90;;;;;;6232134;23;20020;-92
2023/07/06 13:42:23;;;;;;;4.22;2.00;;;31.30;99.90;;;;;;6232772;23;20052;-88
2023/07/06 13:45:17;;;;;;;4.38;2.40;;;30.90;99.90;;;;;;6235771;22;20425;-90
2023/07/06 13:48:12;;;;;;;4.28;2.03;;;29.30;1.00;;;;;;6222870;23;20034;-93
2023/07/06 13:51:03;;;;;;;3.78;2.05;;;29.00;1.00;;;;;;6221262;23;20024;-91
2023/07/06 13:53:50;;;;;;;5.13;2.13;;;30.50;99.90;;;;;;6219250;23;20025;-90
2023/07/06 13:56:41;;;;;;;2.70;1.95;;;32.10;99.90;;;;;;6222318;23;20359;-90
2023/07/06 13:59:29;;;;;;;3.90;2.17;;;33.00;99.90;;;;;;6218963;23;20035;-90
2023/07/06 14:02:17;;;;;;;3.92;2.13;;;33.30;99.90;;;;;;6219639;23;20044;-90
2023/07/06 14:05:12;;;;;;;6.40;2.45;;;34.60;99.90;;;;;;6219953;23;20034;-91
2023/07/06 14:08:00;;;;;;;9.27;2.22;;;35.00;99.90;;;;;;6218044;23;20039;-93
2023/07/06 14:10:56;;;;;;;5.35;2.00;;;36.30;99.90;;;;;;6217618;23;20025;-91
2023/07/06 14:13:50;;;;;;;7.57;2.30;;;35.10;99.90;;;;;;6216237;23;20024;-91
2023/07/06 14:16:45;;;;;;;4.80;1.90;;;34.30;99.90;;;;;;6218900;22;20369;-91
2023/07/06 14:19:35;;;;;;;4.72;2.47;;;33.40;99.90;;;;;;6220223;23;20020;-88
2023/07/06 14:22:45;;;;;;;6.05;2.35;;;30.80;99.90;;;;;;6220630;23;20134;-89
2023/07/06 14:25:35;;;;;;;7.85;2.17;;;29.00;99.90;;;;;;6220894;23;20028;-89
2023/07/06 14:28:26;;;;;;;6.93;2.28;;;30.20;99.90;;;;;;6222645;23;20088;-90
2023/07/06 14:31:14;;;;;;;5.70;2.45;;;31.90;99.90;;;;;;6227933;23;20281;-90
2023/07/06 14:34:02;;;;;;;5.43;2.17;;;32.60;99.90;;;;;;6224416;23;20436;-90
2023/07/06 14:36:50;;;;;;;5.78;2.05;;;33.10;99.90;;;;;;6215657;23;20024;-91
2023/07/06 14:39:38;;;;;;;7.53;2.30;;;33.90;99.90;;;;;;6218543;23;20036;-90
2023/07/06 14:42:26;;;;;;;5.75;2.05;;;34.20;99.90;;;;;;6218732;23;20024;-90
2023/07/06 14:45:13;;;;;;;8.43;2.30;;;33.70;99.90;;;;;;6218272;23;20472;-90
2023/07/06 14:48:01;;;;;;;3.83;2.33;;;32.90;99.90;;;;;;6219479;23;20419;-89
2023/07/06 14:50:51;;;;;;;4.18;2.00;;;33.60;99.90;;;;;;6220309;22;20028;-90
2023/07/06 14:53:38;;;;;;;6.88;2.40;;;34.00;99.90;;;;;;6218664;23;20024;-89
2023/07/06 14:56:26;;;;;;;3.53;2.20;;;33.80;99.90;;;;;;6218911;23;20024;-89
2023/07/06 14:59:15;;;;;;;3.25;2.13;;;32.80;99.90;;;;;;6220352;23;20415;-91
2023/07/06 15:02:03;;;;;;;3.75;2.47;;;31.70;99.90;;;;;;6218520;23;20020;-92
2023/07/06 15:04:52;;;;;;;2.95;1.80;;;32.20;99.90;;;;;;6220376;22;20064;-92
2023/07/06 15:07:44;;;;;;;8.38;2.22;;;33.60;99.90;;;;;;6218194;23;20028;-90
2023/07/06 15:10:31;;;;;;;2.95;2.30;;;34.30;99.90;;;;;;6216207;23;20044;-89